createdAt,value
2019-06-08T00:02:29.723Z,101078.28
2019-06-08T00:05:01.026Z,101083.95
2019-06-08T00:07:31.819Z,101084.89
2019-06-08T00:10:02.172Z,101087.49
2019-06-08T00:12:32.486Z,101087.47
2019-06-08T00:15:03.628Z,101093.52
2019-06-08T00:17:38.403Z,101101.08
2019-06-08T00:20:07.477Z,101102.32
2019-06-08T00:22:38.948Z,101106.17
2019-06-08T00:25:11.721Z,101105.02
2019-06-08T00:27:42.061Z,101113.66
2019-06-08T00:30:14.822Z,101108.34
2019-06-08T00:32:45.146Z,101108.88
2019-06-08T00:35:16.959Z,101116.34
2019-06-08T00:37:47.260Z,101124.16
2019-06-08T00:40:18.718Z,101126.51
2019-06-08T00:42:50.399Z,101128.31
2019-06-08T00:45:21.701Z,101130.39
2019-06-08T00:47:52.071Z,101135.80
2019-06-08T00:50:22.973Z,101143.62
2019-06-08T00:52:53.628Z,101139.70
2019-06-08T00:55:25.690Z,101147.64
2019-06-08T00:57:56.372Z,101155.48
2019-06-08T01:00:26.935Z,101155.67
2019-06-08T01:02:57.249Z,101158.72
2019-06-08T01:05:27.861Z,101157.42
2019-06-08T01:07:58.606Z,101165.22
2019-06-08T01:10:29.727Z,101165.78
2019-06-08T01:13:00.509Z,101171.89
2019-06-08T01:15:34.333Z,101180.44
2019-06-08T01:18:04.378Z,101177.13
2019-06-08T01:20:35.025Z,101180.92
2019-06-08T01:23:06.125Z,101182.61
2019-06-08T01:25:36.368Z,101185.30
2019-06-08T01:28:07.016Z,101184.98
2019-06-08T01:30:38.408Z,101194.47
2019-06-08T01:33:08.717Z,101192.66
2019-06-08T01:35:39.032Z,101191.94
2019-06-08T01:38:09.961Z,101198.06
2019-06-08T01:40:40.277Z,101203.25
2019-06-08T01:43:10.599Z,101204.81
2019-06-08T01:45:41.094Z,101207.15
2019-06-08T01:48:19.863Z,101212.73
2019-06-08T01:50:45.071Z,101223.48
2019-06-08T01:53:16.436Z,101224.66
2019-06-08T01:55:47.220Z,101225.97
2019-06-08T01:58:18.341Z,101224.61
2019-06-08T02:00:49.002Z,101229.36
2019-06-08T02:03:19.519Z,101225.67
2019-06-08T02:05:50.845Z,101233.91
2019-06-08T02:08:21.579Z,101231.25
2019-06-08T02:10:52.591Z,101232.26
2019-06-08T02:13:22.945Z,101241.98
2019-06-08T02:15:53.304Z,101247.84
2019-06-08T02:18:36.481Z,101257.54
2019-06-08T02:20:55.787Z,101255.92
2019-06-08T02:23:27.226Z,101251.58
2019-06-08T02:25:59.884Z,101257.41
2019-06-08T02:28:30.142Z,101265.08
2019-06-08T02:31:00.821Z,101268.48
2019-06-08T02:33:32.485Z,101258.19
2019-06-08T02:36:03.610Z,101263.28
2019-06-08T02:38:34.608Z,101267.34
2019-06-08T02:41:06.280Z,101266.73
2019-06-08T02:43:38.292Z,101261.31
2019-06-08T02:46:09.453Z,101265.69
2019-06-08T02:49:00.111Z,101270.58
2019-06-08T02:51:13.484Z,101277.34
2019-06-08T02:53:44.322Z,101277.80
2019-06-08T02:56:15.622Z,101278.91
2019-06-08T02:58:47.304Z,101274.42
2019-06-08T03:01:19.371Z,101270.91
2019-06-08T03:03:51.478Z,101281.72
2019-06-08T03:06:22.007Z,101281.20
2019-06-08T03:08:55.457Z,101278.44
2019-06-08T03:11:26.977Z,101281.14
2019-06-08T03:13:58.931Z,101289.02
2019-06-08T03:16:31.105Z,101291.62
2019-06-08T03:19:19.972Z,101290.28
2019-06-08T03:21:33.941Z,101295.20
2019-06-08T03:24:05.959Z,101297.59
2019-06-08T03:26:36.618Z,101299.86
2019-06-08T03:29:08.655Z,101296.05
2019-06-08T03:31:46.072Z,101297.47
2019-06-08T03:34:11.844Z,101309.25
2019-06-08T03:36:53.840Z,101307.87
2019-06-08T03:39:15.079Z,101306.50
2019-06-08T03:41:46.043Z,101314.14
2019-06-08T03:44:17.075Z,101313.00
2019-06-08T03:46:47.456Z,101321.44
2019-06-08T03:49:17.813Z,101325.12
2019-06-08T03:51:48.923Z,101328.78
2019-06-08T03:54:20.345Z,101333.19
2019-06-08T03:56:51.301Z,101331.03
2019-06-08T03:59:21.957Z,101338.05
2019-06-08T04:01:54.453Z,101344.42
2019-06-08T04:04:25.116Z,101339.13
2019-06-08T04:06:55.785Z,101340.25
2019-06-08T04:09:26.146Z,101346.89
2019-06-08T04:11:56.494Z,101352.31
2019-06-08T04:14:27.637Z,101354.88
2019-06-08T04:16:58.460Z,101359.25
2019-06-08T04:19:29.128Z,101365.66
2019-06-08T04:21:59.486Z,101369.88
2019-06-08T04:24:31.351Z,101373.82
2019-06-08T04:27:04.531Z,101373.84
2019-06-08T04:29:34.855Z,101377.91
2019-06-08T04:32:05.230Z,101381.10
2019-06-08T04:34:35.560Z,101390.22
2019-06-08T04:37:06.590Z,101380.11
2019-06-08T04:39:38.416Z,101394.04
2019-06-08T04:42:10.449Z,101398.53
2019-06-08T04:44:42.502Z,101408.70
2019-06-08T04:47:14.971Z,101400.52
2019-06-08T04:49:47.231Z,101410.31
2019-06-08T04:52:19.975Z,101401.11
2019-06-08T04:54:50.317Z,101396.92
2019-06-08T04:57:20.724Z,101397.58
2019-06-08T04:59:51.091Z,101407.92
2019-06-08T05:02:21.392Z,101405.47
2019-06-08T05:04:51.670Z,101408.16
2019-06-08T05:07:23.186Z,101415.63
2019-06-08T05:09:53.820Z,101408.59
2019-06-08T05:12:25.623Z,101414.23
2019-06-08T05:14:55.945Z,101416.23
2019-06-08T05:17:27.832Z,101419.58
2019-06-08T05:19:58.136Z,101426.95
2019-06-08T05:22:29.431Z,101423.57
2019-06-08T05:25:00.403Z,101426.82
2019-06-08T05:27:32.116Z,101435.64
2019-06-08T05:30:08.355Z,101438.86
2019-06-08T05:32:36.194Z,101436.02
2019-06-08T05:35:08.000Z,101434.68
2019-06-08T05:37:39.479Z,101440.91
2019-06-08T05:40:10.015Z,101438.62
2019-06-08T05:42:42.385Z,101443.41
2019-06-08T05:45:12.812Z,101437.00
2019-06-08T05:47:43.928Z,101445.20
2019-06-08T05:50:14.740Z,101454.34
2019-06-08T05:52:50.183Z,101456.69
2019-06-08T05:55:20.614Z,101460.92
2019-06-08T05:57:51.354Z,101463.87
2019-06-08T06:00:21.654Z,101469.49
2019-06-08T06:02:52.759Z,101476.83
2019-06-08T06:05:24.370Z,101485.68
2019-06-08T06:07:55.365Z,101477.16
2019-06-08T06:10:26.016Z,101479.41
2019-06-08T06:12:57.270Z,101478.27
2019-06-08T06:15:27.945Z,101479.88
2019-06-08T06:17:59.504Z,101477.86
2019-06-08T06:20:30.291Z,101483.05
2019-06-08T06:23:00.730Z,101490.91
2019-06-08T06:25:31.259Z,101487.91
2019-06-08T06:28:06.097Z,101497.22
2019-06-08T06:30:34.746Z,101498.95
2019-06-08T06:33:05.478Z,101503.16
2019-06-08T06:35:35.723Z,101509.41
2019-06-08T06:38:06.452Z,101510.00
2019-06-08T06:40:36.723Z,101504.33
2019-06-08T06:43:07.473Z,101511.11
2019-06-08T06:45:37.695Z,101513.38
2019-06-08T06:48:07.979Z,101525.48
2019-06-08T06:50:38.234Z,101523.00
2019-06-08T06:53:09.990Z,101521.33
2019-06-08T06:55:40.345Z,101522.63
2019-06-08T06:58:10.978Z,101529.58
2019-06-08T07:00:43.176Z,101535.59
2019-06-08T07:03:13.906Z,101537.12
2019-06-08T07:05:44.248Z,101542.08
2019-06-08T07:08:14.491Z,101537.34
2019-06-08T07:10:46.651Z,101542.16
2019-06-08T07:13:17.688Z,101547.77
2019-06-08T07:15:52.665Z,101549.31
2019-06-08T07:18:20.005Z,101555.83
2019-06-08T07:20:50.366Z,101556.20
2019-06-08T07:23:21.020Z,101571.66
2019-06-08T07:25:52.869Z,101568.34
2019-06-08T07:28:24.221Z,101570.02
2019-06-08T07:30:54.904Z,101580.53
2019-06-08T07:33:25.226Z,101584.71
2019-06-08T07:35:55.957Z,101590.08
2019-06-08T07:38:26.369Z,101591.25
2019-06-08T07:40:59.879Z,101588.08
2019-06-08T07:43:28.715Z,101598.91
2019-06-08T07:45:59.451Z,101602.59
2019-06-08T07:48:29.690Z,101608.17
2019-06-08T07:51:00.418Z,101620.16
2019-06-08T07:57:49.220Z,101622.44
2019-06-08T08:00:23.843Z,101625.39
2019-06-08T08:02:56.194Z,101630.19
2019-06-08T08:05:26.521Z,101630.14
2019-06-08T08:07:58.923Z,101633.03
2019-06-08T08:10:29.777Z,101637.63
2019-06-08T08:13:01.272Z,101625.45
2019-06-08T08:15:31.575Z,101633.44
2019-06-08T08:18:02.244Z,101621.25
2019-06-08T08:20:32.580Z,101628.16
2019-06-08T08:23:05.954Z,101626.55
2019-06-08T08:25:34.844Z,101630.73
2019-06-08T08:28:05.151Z,101633.53
2019-06-08T08:30:37.666Z,101643.92
2019-06-08T08:39:17.759Z,101651.77
2019-06-08T08:41:53.719Z,101644.60
2019-06-08T08:44:21.564Z,101649.72
2019-06-08T08:46:53.567Z,101654.10
2019-06-08T08:49:28.091Z,101658.38
2019-06-08T08:52:01.453Z,101660.36
2019-06-08T08:54:31.285Z,101660.30
2019-06-08T08:57:05.142Z,101662.59
2019-06-08T08:59:37.993Z,101649.84
2019-06-08T09:02:11.533Z,101660.64
2019-06-08T09:04:40.367Z,101656.47
2019-06-08T09:07:12.347Z,101672.49
2019-06-08T09:09:43.077Z,101659.94
2019-06-08T09:12:13.433Z,101662.05
2019-06-08T09:14:43.663Z,101666.61
2019-06-08T09:17:14.653Z,101672.70
2019-06-08T09:19:44.966Z,101661.96
2019-06-08T09:22:18.643Z,101665.58
2019-06-08T09:24:48.708Z,101660.11
2019-06-08T09:27:19.560Z,101656.91
2019-06-08T09:29:49.862Z,101666.63
2019-06-08T09:32:20.593Z,101673.29
2019-06-08T09:34:52.895Z,101676.36
2019-06-08T09:37:23.129Z,101672.44
2019-06-08T09:39:53.957Z,101666.85
2019-06-08T09:42:25.218Z,101673.72
2019-06-08T09:44:57.846Z,101666.11
2019-06-08T09:47:28.083Z,101679.35
2019-06-08T09:50:02.498Z,101669.86
2019-06-08T09:52:32.453Z,101661.17
2019-06-08T09:55:05.039Z,101671.81
2019-06-08T09:57:34.769Z,101666.73
2019-06-08T10:00:15.405Z,101666.81
2019-06-08T10:02:40.592Z,101657.17
2019-06-08T10:05:11.025Z,101662.55
2019-06-08T10:07:41.972Z,101672.77
2019-06-08T10:10:13.700Z,101667.80
2019-06-08T10:12:48.158Z,101669.73
2019-06-08T10:15:18.010Z,101679.49
2019-06-08T10:17:48.405Z,101684.66
2019-06-08T10:20:18.768Z,101689.70
2019-06-08T10:22:50.482Z,101698.30
2019-06-08T10:25:21.277Z,101692.88
2019-06-08T10:27:53.325Z,101699.73
2019-06-08T10:30:24.131Z,101697.95
2019-06-08T10:32:56.251Z,101711.23
2019-06-08T10:35:28.330Z,101703.28
2019-06-08T10:38:03.593Z,101706.36
2019-06-08T10:40:32.175Z,101704.72
2019-06-08T10:43:03.388Z,101704.72
2019-06-08T10:45:34.489Z,101707.61
2019-06-08T10:48:06.374Z,101714.67
2019-06-08T10:50:37.644Z,101718.23
2019-06-08T10:53:11.972Z,101715.47
2019-06-08T10:55:40.820Z,101718.34
2019-06-08T10:58:12.173Z,101719.42
2019-06-08T11:00:42.544Z,101711.30
2019-06-08T11:03:12.893Z,101721.80
2019-06-08T11:05:43.210Z,101713.60
2019-06-08T11:08:14.658Z,101731.32
2019-06-08T11:10:47.460Z,101716.05
2019-06-08T11:13:18.869Z,101723.83
2019-06-08T11:15:49.513Z,101725.29
2019-06-08T11:18:19.824Z,101724.25
2019-06-08T11:20:50.167Z,101728.84
2019-06-08T11:23:20.697Z,101733.93
2019-06-08T11:25:51.356Z,101737.81
2019-06-08T11:28:22.753Z,101737.21
2019-06-08T11:30:53.796Z,101736.70
2019-06-08T11:33:25.086Z,101731.02
2019-06-08T11:35:58.143Z,101734.44
2019-06-08T11:38:28.849Z,101736.81
2019-06-08T11:41:00.950Z,101731.42
2019-06-08T11:43:31.761Z,101742.69
2019-06-08T11:46:02.654Z,101746.38
2019-06-08T11:48:33.018Z,101747.84
2019-06-08T11:51:04.682Z,101749.55
2019-06-08T11:53:38.292Z,101754.42
2019-06-08T11:56:10.042Z,101745.16
2019-06-08T11:58:40.679Z,101740.34
2019-06-08T12:01:13.734Z,101733.52
2019-06-08T12:03:44.747Z,101743.22
2019-06-08T12:06:15.249Z,101740.77
2019-06-08T12:08:47.319Z,101742.37
2019-06-08T12:11:19.709Z,101737.37
2019-06-08T12:13:49.715Z,101735.52
2019-06-08T12:16:22.303Z,101741.19
2019-06-08T12:18:52.348Z,101743.02
2019-06-08T12:21:22.716Z,101734.31
2019-06-08T12:23:52.971Z,101730.32
2019-06-08T12:26:23.645Z,101739.35
2019-06-08T12:28:54.146Z,101741.20
2019-06-08T12:31:28.069Z,101736.86
2019-06-08T12:33:59.858Z,101733.41
2019-06-08T12:36:30.747Z,101735.45
2019-06-08T12:39:01.141Z,101737.02
2019-06-08T12:41:33.976Z,101736.58
2019-06-08T12:44:04.903Z,101727.08
2019-06-08T12:46:40.931Z,101738.70
2019-06-08T12:49:10.962Z,101738.84
2019-06-08T12:51:40.491Z,101735.53
2019-06-08T12:54:12.738Z,101738.16
2019-06-08T12:56:43.399Z,101745.74
2019-06-08T12:59:20.869Z,101738.23
2019-06-08T13:01:48.666Z,101727.27
2019-06-08T13:04:23.485Z,101739.82
2019-06-08T13:06:52.916Z,101749.84
2019-06-08T13:09:23.651Z,101739.22
2019-06-08T13:11:56.382Z,101741.50
2019-06-08T13:14:28.406Z,101745.34
2019-06-08T13:17:00.984Z,101735.30
2019-06-08T13:19:31.563Z,101736.47
2019-06-08T13:22:01.882Z,101732.56
2019-06-08T13:24:32.240Z,101744.11
2019-06-08T13:27:02.586Z,101744.88
2019-06-08T13:29:34.558Z,101742.82
2019-06-08T13:32:07.878Z,101748.00
2019-06-08T13:34:38.777Z,101738.95
2019-06-08T13:37:10.630Z,101735.73
2019-06-08T13:39:41.703Z,101743.81
2019-06-08T13:42:15.225Z,101735.55
2019-06-08T13:44:47.489Z,101748.55
2019-06-08T13:47:18.936Z,101747.59
2019-06-08T13:49:50.772Z,101753.70
2019-06-08T13:52:23.418Z,101761.41
2019-06-08T13:54:53.475Z,101752.44
2019-06-08T13:57:25.076Z,101744.88
2019-06-08T13:59:57.846Z,101746.48
2019-06-08T14:02:31.442Z,101748.69
2019-06-08T14:05:00.434Z,101756.44
2019-06-08T14:07:34.307Z,101751.70
2019-06-08T14:10:02.828Z,101750.27
2019-06-08T14:12:33.698Z,101749.78
2019-06-08T14:15:08.417Z,101750.97
2019-06-08T14:17:38.044Z,101753.05
2019-06-08T14:20:09.450Z,101757.13
2019-06-08T14:22:39.892Z,101766.40
2019-06-08T14:25:10.842Z,101771.01
2019-06-08T14:27:41.343Z,101764.23
2019-06-08T14:30:12.423Z,101771.84
2019-06-08T14:32:44.973Z,101771.07
2019-06-08T14:35:18.691Z,101770.38
2019-06-08T14:37:48.251Z,101762.72
2019-06-08T14:40:19.366Z,101768.68
2019-06-08T14:42:49.692Z,101772.91
2019-06-08T14:45:20.817Z,101766.93
2019-06-08T14:47:51.091Z,101769.41
2019-06-08T14:50:22.907Z,101765.37
2019-06-08T14:52:54.990Z,101760.13
2019-06-08T14:55:29.238Z,101757.90
2019-06-08T14:57:58.132Z,101764.52
2019-06-08T15:00:29.706Z,101754.88
2019-06-08T15:03:00.246Z,101755.84
2019-06-08T15:05:32.284Z,101763.06
2019-06-08T15:08:02.579Z,101750.56
2019-06-08T15:10:33.716Z,101756.36
2019-06-08T15:13:03.983Z,101760.30
2019-06-08T15:15:34.640Z,101750.84
2019-06-08T15:18:05.121Z,101758.80
2019-06-08T15:20:37.813Z,101756.44
2019-06-08T15:23:08.266Z,101753.09
2019-06-08T15:25:39.323Z,101758.47
2019-06-08T15:28:09.571Z,101755.69
2019-06-08T15:30:41.314Z,101756.29
2019-06-08T15:33:11.630Z,101757.16
2019-06-08T15:35:42.379Z,101752.60
2019-06-08T15:38:12.622Z,101759.44
2019-06-08T15:40:43.252Z,101765.92
2019-06-08T15:43:13.515Z,101762.53
2019-06-08T15:45:44.402Z,101766.97
2019-06-08T15:48:14.687Z,101763.62
2019-06-08T15:50:47.154Z,101765.85
2019-06-08T15:53:18.388Z,101760.90
2019-06-08T15:55:51.991Z,101769.16
2019-06-08T15:58:22.841Z,101764.27
2019-06-08T16:00:55.585Z,101759.44
2019-06-08T16:03:25.496Z,101771.86
2019-06-08T16:05:56.475Z,101764.00
2019-06-08T16:08:27.856Z,101770.55
2019-06-08T16:10:58.249Z,101772.55
2019-06-08T16:13:28.815Z,101769.30
2019-06-08T16:15:59.567Z,101767.47
2019-06-08T16:18:29.869Z,101770.65
2019-06-08T16:21:01.357Z,101766.56
2019-06-08T16:23:31.921Z,101766.10
2019-06-08T16:26:03.091Z,101759.34
2019-06-08T16:28:34.396Z,101767.81
2019-06-08T16:31:06.674Z,101763.80
2019-06-08T16:33:36.939Z,101771.34
2019-06-08T16:36:10.582Z,101772.83
2019-06-08T16:38:41.225Z,101776.77
2019-06-08T16:41:11.888Z,101788.31
2019-06-08T16:43:43.588Z,101786.47
2019-06-08T16:46:15.081Z,101789.42
2019-06-08T16:48:45.405Z,101780.20
2019-06-08T16:51:16.222Z,101785.26
2019-06-08T16:53:46.519Z,101784.48
2019-06-08T16:56:17.926Z,101785.48
2019-06-08T16:58:48.549Z,101783.42
2019-06-08T17:01:19.491Z,101786.39
2019-06-08T17:03:49.735Z,101780.45
2019-06-08T17:06:22.874Z,101787.48
2019-06-08T17:08:53.175Z,101787.39
2019-06-08T17:11:23.532Z,101785.83
2019-06-08T17:13:53.932Z,101790.30
2019-06-08T17:16:24.625Z,101796.97
2019-06-08T17:18:55.899Z,101794.00
2019-06-08T17:21:26.927Z,101797.05
2019-06-08T17:23:57.353Z,101798.31
2019-06-08T17:26:28.015Z,101796.78
2019-06-08T17:28:58.453Z,101801.16
2019-06-08T17:31:28.971Z,101799.47
2019-06-08T17:33:59.610Z,101800.19
2019-06-08T17:36:32.030Z,101799.23
2019-06-08T17:39:02.367Z,101800.53
2019-06-08T17:41:36.013Z,101796.39
2019-06-08T17:44:06.470Z,101799.05
2019-06-08T17:46:39.172Z,101791.15
2019-06-08T17:49:10.021Z,101795.70
2019-06-08T17:51:41.822Z,101786.90
2019-06-08T17:54:12.139Z,101786.59
2019-06-08T17:56:43.496Z,101790.42
2019-06-08T17:59:13.744Z,101797.57
2019-06-08T18:01:44.416Z,101802.81
2019-06-08T18:04:14.760Z,101800.71
2019-06-08T18:06:49.120Z,101796.37
2019-06-08T18:09:19.481Z,101803.95
2019-06-08T18:11:49.820Z,101792.05
2019-06-08T18:14:20.931Z,101796.41
2019-06-08T18:16:51.609Z,101803.52
2019-06-08T18:19:29.993Z,101797.84
2019-06-08T18:22:04.471Z,101802.72
2019-06-08T18:24:32.793Z,101798.38
2019-06-08T18:27:03.494Z,101801.95
2019-06-08T18:29:34.603Z,101801.97
2019-06-08T18:32:07.602Z,101797.13
2019-06-08T18:34:40.286Z,101798.88
2019-06-08T18:37:11.399Z,101795.73
2019-06-08T18:39:44.416Z,101803.34
2019-06-08T18:42:17.634Z,101801.57
2019-06-08T18:44:49.044Z,101804.69
2019-06-08T18:47:20.817Z,101803.41
2019-06-08T18:49:52.001Z,101800.38
2019-06-08T18:52:22.306Z,101800.50
2019-06-08T18:54:52.633Z,101800.09
2019-06-08T18:57:23.354Z,101804.53
2019-06-08T18:59:53.755Z,101804.55
2019-06-08T19:02:25.919Z,101804.58
2019-06-08T19:04:57.359Z,101807.70
2019-06-08T19:07:28.725Z,101809.91
2019-06-08T19:10:01.433Z,101809.94
2019-06-08T19:12:32.489Z,101820.92
2019-06-08T19:15:08.306Z,101822.66
2019-06-08T19:17:43.899Z,101820.97
2019-06-08T19:20:11.759Z,101817.02
2019-06-08T19:22:46.497Z,101820.09
2019-06-08T19:25:17.479Z,101820.98
2019-06-08T19:27:52.956Z,101822.32
2019-06-08T19:30:20.349Z,101828.86
2019-06-08T19:32:52.610Z,101824.52
2019-06-08T19:35:23.011Z,101821.00
2019-06-08T19:37:54.087Z,101820.57
2019-06-08T19:40:24.411Z,101831.56
2019-06-08T19:43:00.978Z,101825.80
2019-06-08T19:45:28.562Z,101825.80
2019-06-08T19:47:58.871Z,101831.92
2019-06-08T19:50:30.052Z,101834.55
2019-06-08T19:53:00.917Z,101835.42
2019-06-08T19:55:31.732Z,101835.88
2019-06-08T19:58:02.071Z,101841.58
2019-06-08T20:00:32.799Z,101841.97
2019-06-08T20:03:07.536Z,101841.08
2019-06-08T20:05:37.776Z,101849.88
2019-06-08T20:08:08.406Z,101856.81
2019-06-08T20:10:39.134Z,101863.40
2019-06-08T20:13:09.784Z,101867.30
2019-06-08T20:15:46.373Z,101873.58
2019-06-08T20:18:13.080Z,101873.92
2019-06-08T20:20:43.844Z,101872.96
2019-06-08T20:23:14.653Z,101881.66
2019-06-08T20:25:45.241Z,101879.40
2019-06-08T20:28:17.320Z,101876.30
2019-06-08T20:30:48.495Z,101881.98
2019-06-08T20:33:19.523Z,101872.33
2019-06-08T20:35:51.771Z,101882.46
2019-06-08T20:38:35.225Z,101883.72
2019-06-08T20:40:54.638Z,101885.42
2019-06-08T20:43:25.244Z,101884.94
2019-06-08T20:45:58.209Z,101887.14
2019-06-08T20:48:28.521Z,101896.31
2019-06-08T20:51:00.675Z,101893.25
2019-06-08T20:53:30.980Z,101903.31
2019-06-08T20:56:01.934Z,101905.52
2019-06-08T20:58:32.222Z,101904.22
2019-06-08T21:01:02.874Z,101913.00
2019-06-08T21:03:33.601Z,101912.12
2019-06-08T21:06:04.641Z,101912.98
2019-06-08T21:08:38.574Z,101909.92
2019-06-08T21:11:08.914Z,101912.52
2019-06-08T21:13:39.256Z,101918.59
2019-06-08T21:16:10.251Z,101922.53
2019-06-08T21:18:41.063Z,101918.55
2019-06-08T21:21:11.336Z,101924.66
2019-06-08T21:23:41.692Z,101931.20
2019-06-08T21:26:14.309Z,101929.88
2019-06-08T21:28:49.837Z,101930.78
2019-06-08T21:31:18.800Z,101932.12
2019-06-08T21:33:52.154Z,101932.55
2019-06-08T21:36:21.907Z,101932.59
2019-06-08T21:38:55.336Z,101935.61
2019-06-08T21:41:27.913Z,101929.86
2019-06-08T21:44:01.673Z,101928.13
2019-06-08T21:46:30.186Z,101929.80
2019-06-08T21:49:00.886Z,101935.10
2019-06-08T21:51:31.211Z,101937.65
2019-06-08T21:54:01.588Z,101933.23
2019-06-08T21:56:32.277Z,101928.58
2019-06-08T21:59:02.962Z,101926.58
2019-06-08T22:01:33.789Z,101925.03
2019-06-08T22:04:04.600Z,101926.25
2019-06-08T22:06:37.231Z,101929.28
2019-06-08T22:09:09.709Z,101925.30
2019-06-08T22:11:40.713Z,101926.13
2019-06-08T22:14:10.962Z,101924.40
2019-06-08T22:16:41.713Z,101922.20
2019-06-08T22:19:13.019Z,101918.66
2019-06-08T22:21:43.352Z,101917.48
2019-06-08T22:24:13.712Z,101922.64
2019-06-08T22:26:44.020Z,101922.55
2019-06-08T22:29:18.118Z,101931.19
2019-06-08T22:31:47.967Z,101928.19
2019-06-08T22:34:19.654Z,101924.26
2019-06-08T22:36:53.068Z,101929.33
2019-06-08T22:39:23.900Z,101927.11
2019-06-08T22:41:58.522Z,101922.18
2019-06-08T22:44:28.916Z,101913.81
2019-06-08T22:47:01.990Z,101917.30
2019-06-08T22:49:32.519Z,101913.43
2019-06-08T22:52:04.293Z,101912.20
2019-06-08T22:54:34.692Z,101910.58
2019-06-08T22:57:07.800Z,101902.13
2019-06-08T22:59:38.495Z,101897.48
2019-06-08T23:02:09.329Z,101899.66
2019-06-08T23:04:39.567Z,101899.17
2019-06-08T23:07:25.485Z,101890.83
2019-06-08T23:09:42.167Z,101888.98
2019-06-08T23:12:13.231Z,101888.58
2019-06-08T23:14:43.536Z,101890.98
2019-06-08T23:17:13.819Z,101883.33
2019-06-08T23:19:44.385Z,101890.03
2019-06-08T23:22:14.628Z,101891.27
2019-06-08T23:24:44.974Z,101883.09
2019-06-08T23:27:17.579Z,101881.20
2019-06-08T23:29:47.909Z,101873.61
2019-06-08T23:32:18.300Z,101862.39
2019-06-08T23:34:48.959Z,101861.84
2019-06-08T23:37:19.389Z,101858.94
2019-06-08T23:39:51.410Z,101864.71
2019-06-08T23:42:22.386Z,101867.09
2019-06-08T23:44:52.766Z,101862.05
2019-06-08T23:47:23.738Z,101857.65
2019-06-08T23:49:54.016Z,101854.58
2019-06-08T23:52:27.738Z,101853.08
2019-06-08T23:54:59.584Z,101856.30
2019-06-08T23:57:30.437Z,101863.52
